Time;durP1;ratioP1;P1;durP2;ratioP2;P2;SDS_P1;SDS_P2;PMS_P1;PMS_P2;Temp;Humidity;BMP_temperature;BMP_pressure;BME280_temperature;BME280_humidity;BME280_pressure;Samples;Min_cycle;Max_cycle;Signal;HPM_P1;HPM_P2
2022/06/04 00:00:31;;;;;;;16.50;15.10;;;;;;;29.58;45.06;94964.09;5086692;28;20186;-77
2022/06/04 00:02:56;;;;;;;17.50;15.90;;;;;;;29.59;44.65;94957.56;5086753;28;20500;-77
2022/06/04 00:05:24;;;;;;;17.70;16.03;;;;;;;29.32;45.57;94959.28;5086387;28;20432;-76
2022/06/04 00:07:52;;;;;;;16.73;15.43;;;;;;;29.25;45.70;94963.53;5086757;28;20170;-77
2022/06/04 00:15:53;;;;;;;16.10;14.70;;;;;;;28.86;46.33;94964.91;5088343;28;20585;-77
2022/06/04 00:18:21;;;;;;;16.30;14.90;;;;;;;29.17;45.95;94960.44;5091696;28;20420;-76
2022/06/04 00:20:47;;;;;;;15.90;14.30;;;;;;;28.74;46.96;94960.84;5084972;28;20177;-77
2022/06/04 00:23:13;;;;;;;17.47;15.47;;;;;;;28.80;46.86;94964.22;5088937;28;20432;-77
2022/06/04 00:25:41;;;;;;;14.83;13.43;;;;;;;28.68;47.03;94959.31;5092221;28;20882;-76
2022/06/04 00:28:08;;;;;;;16.63;15.23;;;;;;;28.65;46.98;94953.75;5081950;28;20420;-77
2022/06/04 00:30:35;;;;;;;14.77;13.47;;;;;;;28.55;47.43;94955.56;5101824;28;20426;-76
2022/06/04 00:33:00;;;;;;;15.77;14.43;;;;;;;28.71;46.90;94957.94;5085543;28;20478;-77
2022/06/04 00:35:26;;;;;;;15.40;13.80;;;;;;;28.80;46.50;94958.84;5084899;28;20537;-77
2022/06/04 00:37:52;;;;;;;16.20;14.90;;;;;;;28.55;46.89;94950.19;5088330;28;20212;-77
2022/06/04 00:40:37;;;;;;;15.27;13.77;;;;;;;28.58;46.98;94944.19;5089755;28;20423;-77
2022/06/04 00:43:03;;;;;;;15.97;14.60;;;;;;;28.88;46.46;94947.31;5087275;28;20195;-77
2022/06/04 00:45:32;;;;;;;15.50;14.13;;;;;;;28.81;46.34;94936.16;5091699;28;20427;-77
2022/06/04 00:47:59;;;;;;;17.50;14.50;;;;;;;28.68;46.74;94937.78;5081954;28;20485;-78
2022/06/04 00:50:26;;;;;;;16.77;15.00;;;;;;;28.84;46.32;94930.19;5101443;28;20495;-77
2022/06/04 00:52:54;;;;;;;15.97;14.47;;;;;;;28.85;46.47;94931.75;5079577;28;20440;-76
2022/06/04 00:55:20;;;;;;;15.27;13.97;;;;;;;28.88;46.34;94933.84;5082991;28;20447;-77
2022/06/04 00:58:16;;;;;;;15.30;13.90;;;;;;;28.97;46.12;94933.94;5083884;28;20464;-77
2022/06/04 01:00:50;;;;;;;17.30;14.97;;;;;;;28.95;46.14;94931.56;5083662;28;20416;-77
2022/06/04 01:03:35;;;;;;;15.50;14.23;;;;;;;28.96;46.01;94927.72;5086175;28;20941;-77
2022/06/04 01:06:10;;;;;;;16.97;15.40;;;;;;;28.83;46.50;94927.78;5085411;28;20763;-77
2022/06/04 01:09:00;;;;;;;16.20;14.90;;;;;;;28.24;47.82;94923.81;5077253;28;20414;-76
2022/06/04 01:12:11;;;;;;;15.30;14.07;;;;;;;28.59;46.72;94924.25;5084913;28;20510;-78
2022/06/04 01:15:01;;;;;;;16.23;14.90;;;;;;;28.37;47.30;94916.84;5076282;28;20522;-76
2022/06/04 01:17:32;;;;;;;17.50;15.87;;;;;;;28.29;47.36;94925.63;5078071;28;20532;-78
2022/06/04 01:19:58;;;;;;;16.30;14.70;;;;;;;28.32;46.76;94924.22;5083933;28;20438;-76
2022/06/04 01:22:49;;;;;;;17.20;15.60;;;;;;;28.65;46.14;94929.50;5084860;28;20432;-77
2022/06/04 01:25:18;;;;;;;14.60;13.20;;;;;;;28.57;46.26;94921.06;5084281;28;20209;-78
2022/06/04 01:27:49;;;;;;;15.57;13.87;;;;;;;28.63;46.26;94913.66;5085460;28;20949;-77
2022/06/04 01:30:26;;;;;;;13.70;12.60;;;;;;;28.78;45.65;94909.84;5082282;28;20459;-76
2022/06/04 01:33:21;;;;;;;15.57;14.23;;;;;;;28.62;45.88;94902.06;5083523;28;20431;-77
2022/06/04 01:36:06;;;;;;;14.77;13.37;;;;;;;28.69;45.71;94908.97;5072892;28;20437;-77
2022/06/04 01:38:35;;;;;;;15.57;14.30;;;;;;;28.78;45.72;94902.56;5083326;28;20480;-77
2022/06/04 01:41:09;;;;;;;16.23;14.63;;;;;;;28.82;45.56;94905.44;5084061;28;20821;-77
2022/06/04 01:43:59;;;;;;;14.03;12.87;;;;;;;28.99;45.10;94905.56;5076459;28;20479;-77
2022/06/04 01:46:35;;;;;;;15.47;13.97;;;;;;;28.79;45.41;94904.13;5072532;28;20431;-77
2022/06/04 01:49:18;;;;;;;14.47;13.07;;;;;;;28.76;45.50;94906.63;5082150;28;20480;-77
2022/06/04 01:51:46;;;;;;;14.10;12.80;;;;;;;28.60;45.77;94904.28;5085195;28;20428;-77
2022/06/04 01:54:18;;;;;;;14.33;12.90;;;;;;;28.07;46.57;94912.88;5083758;28;20457;-77
2022/06/04 01:56:49;;;;;;;15.23;13.73;;;;;;;28.28;46.40;94918.63;5080221;28;20487;-77
2022/06/04 01:59:27;;;;;;;14.43;13.10;;;;;;;28.19;46.66;94923.94;5080506;28;20429;-77
2022/06/04 02:01:57;;;;;;;16.60;14.90;;;;;;;27.82;47.55;94928.34;5083043;28;20423;-77
2022/06/04 02:04:34;;;;;;;15.80;14.50;;;;;;;27.84;47.36;94936.91;5083540;28;20435;-77
2022/06/04 02:09:54;;;;;;;13.80;12.60;;;;;;;27.25;47.96;94954.59;5076413;28;20853;-76
2022/06/04 02:12:20;;;;;;;13.70;12.60;;;;;;;27.24;48.00;94959.13;5080300;28;20433;-77
2022/06/04 02:14:46;;;;;;;13.30;12.20;;;;;;;27.05;48.60;94961.03;5087598;28;20433;-77
2022/06/04 02:17:17;;;;;;;13.83;12.83;;;;;;;27.70;46.92;94963.00;5087906;28;20204;-77
2022/06/04 02:19:44;;;;;;;14.30;13.10;;;;;;;27.32;47.58;94964.94;5086378;28;20426;-77
2022/06/04 02:22:10;;;;;;;15.40;14.10;;;;;;;27.50;46.92;94964.13;5087196;28;20525;-77
2022/06/04 02:24:36;;;;;;;14.13;13.00;;;;;;;27.75;46.54;94964.81;5088367;28;20858;-78
2022/06/04 02:27:02;;;;;;;14.57;13.23;;;;;;;27.88;46.16;94969.41;5086631;28;20431;-76
2022/06/04 02:29:28;;;;;;;13.80;12.40;;;;;;;27.27;47.87;94982.75;5088574;28;20412;-77
2022/06/04 02:32:17;;;;;;;14.47;12.97;;;;;;;27.27;47.51;94979.28;5088488;28;20182;-78
2022/06/04 02:35:03;;;;;;;16.13;14.00;;;;;;;27.74;46.95;94973.97;5081171;28;20494;-77
2022/06/04 02:37:38;;;;;;;14.57;13.30;;;;;;;27.83;46.25;94966.81;5079879;28;20467;-77
2022/06/04 02:40:16;;;;;;;14.97;13.67;;;;;;;27.84;46.71;94974.59;5087433;28;20525;-77
2022/06/04 02:42:54;;;;;;;14.00;12.70;;;;;;;27.91;46.42;94970.75;5083817;28;20436;-77
2022/06/04 02:45:28;;;;;;;14.47;13.20;;;;;;;28.03;46.13;94961.09;5088141;28;20518;-78
2022/06/04 02:48:01;;;;;;;14.87;13.50;;;;;;;28.01;46.35;94957.13;5075414;28;20411;-77
2022/06/04 02:50:40;;;;;;;15.57;14.13;;;;;;;28.05;46.33;94960.81;5081474;28;20445;-77
2022/06/04 02:53:06;;;;;;;15.70;14.20;;;;;;;28.24;46.18;94960.72;5091149;28;20459;-77
2022/06/04 02:55:36;;;;;;;15.73;14.40;;;;;;;28.27;45.79;94948.53;5086922;28;20439;-77
2022/06/04 02:58:08;;;;;;;15.73;14.17;;;;;;;28.16;45.66;94953.34;5086959;28;20461;-78
2022/06/04 03:00:35;;;;;;;15.33;14.13;;;;;;;28.14;45.68;94955.53;5082770;28;20596;-77
2022/06/04 03:03:00;;;;;;;17.43;15.00;;;;;;;28.08;46.25;94952.16;5082620;28;20416;-77
2022/06/04 03:05:28;;;;;;;13.07;12.00;;;;;;;28.14;45.98;94947.47;5086109;28;21023;-77
2022/06/04 03:07:57;;;;;;;16.40;14.30;;;;;;;28.24;46.19;94944.56;5087637;28;20178;-78
2022/06/04 03:10:26;;;;;;;17.30;15.60;;;;;;;28.03;46.62;94946.84;5086436;28;20439;-77
2022/06/04 03:12:52;;;;;;;16.57;15.07;;;;;;;27.44;47.90;94941.91;5085939;28;20458;-78
2022/06/04 03:15:18;;;;;;;19.03;15.90;;;;;;;27.91;46.67;94935.78;5086105;28;20519;-77
2022/06/04 03:17:45;;;;;;;16.93;15.27;;;;;;;28.04;46.24;94943.88;5086064;28;20506;-77
2022/06/04 03:20:17;;;;;;;15.87;14.47;;;;;;;27.65;46.92;94944.25;5087231;28;20182;-78
2022/06/04 03:22:42;;;;;;;14.73;13.23;;;;;;;27.54;47.11;94932.09;5101072;28;20428;-78
2022/06/04 03:25:08;;;;;;;15.83;14.20;;;;;;;27.29;47.69;94938.69;5085785;28;20435;-78
2022/06/04 03:27:34;;;;;;;16.80;15.27;;;;;;;27.53;47.38;94935.88;5087413;28;20178;-77
2022/06/04 03:29:59;;;;;;;17.17;15.10;;;;;;;27.38;47.40;94934.22;5083219;28;20454;-77
2022/06/04 03:32:25;;;;;;;15.97;14.50;;;;;;;27.64;46.59;94932.72;5087770;28;20177;-77
2022/06/04 03:34:50;;;;;;;15.30;13.90;;;;;;;27.94;46.27;94933.28;5081454;28;20225;-77
2022/06/04 03:37:16;;;;;;;15.63;14.17;;;;;;;28.16;46.25;94927.22;5095517;28;20205;-77
2022/06/04 03:39:41;;;;;;;17.47;15.67;;;;;;;28.35;45.49;94939.78;5087410;28;20200;-77
2022/06/04 03:42:07;;;;;;;17.87;16.07;;;;;;;28.44;45.51;94929.91;5085940;28;20213;-78
2022/06/04 03:44:33;;;;;;;15.93;14.50;;;;;;;28.65;44.56;94932.19;5087065;28;20552;-77
2022/06/04 03:46:58;;;;;;;16.63;14.93;;;;;;;28.65;44.57;94932.19;5083315;28;20260;-77
2022/06/04 03:49:24;;;;;;;15.10;13.73;;;;;;;28.13;46.06;94933.19;5086555;28;20182;-77
2022/06/04 03:51:49;;;;;;;15.03;13.50;;;;;;;28.13;45.90;94932.41;5085415;28;20201;-77
2022/06/04 03:54:15;;;;;;;18.10;16.40;;;;;;;28.49;45.06;94932.47;5086541;28;20177;-77
2022/06/04 03:56:40;;;;;;;16.47;14.87;;;;;;;28.34;45.55;94939.00;5079523;28;20210;-77
2022/06/04 03:59:06;;;;;;;16.93;15.53;;;;;;;28.65;45.07;94938.41;5086545;28;20201;-77
2022/06/04 04:01:32;;;;;;;17.63;15.90;;;;;;;28.94;44.59;94943.41;5081931;28;20206;-78
2022/06/04 04:04:00;;;;;;;16.70;14.97;;;;;;;29.20;44.38;94945.56;5085299;28;20201;-77
2022/06/04 04:06:29;;;;;;;17.57;15.87;;;;;;;29.06;44.62;94955.56;5102032;28;20424;-77
2022/06/04 04:08:55;;;;;;;18.40;16.70;;;;;;;29.17;44.67;94954.25;5086306;28;20432;-77
2022/06/04 04:11:23;;;;;;;17.87;16.33;;;;;;;29.36;44.27;94954.09;5084902;28;20438;-77
2022/06/04 04:13:51;;;;;;;18.83;17.00;;;;;;;29.76;43.48;94955.00;5086288;28;20424;-77
2022/06/04 04:16:18;;;;;;;18.77;17.27;;;;;;;29.86;43.37;94955.84;5084311;28;20517;-78
2022/06/04 04:18:44;;;;;;;19.47;17.77;;;;;;;28.72;45.89;94967.59;5086648;28;20442;-77
2022/06/04 04:21:13;;;;;;;19.67;18.07;;;;;;;28.25;46.87;94962.34;5086489;28;20432;-77
2022/06/04 04:23:39;;;;;;;20.87;18.97;;;;;;;29.22;45.32;94959.53;5086014;28;20428;-77
2022/06/04 04:26:07;;;;;;;20.43;18.60;;;;;;;29.55;44.47;94953.91;5086050;28;20515;-77
2022/06/04 04:28:33;;;;;;;19.17;17.30;;;;;;;30.03;43.40;94966.78;5101723;28;20432;-77
2022/06/04 04:31:00;;;;;;;20.33;18.60;;;;;;;29.87;43.42;94976.34;5086656;28;20476;-77
2022/06/04 04:33:25;;;;;;;18.40;16.70;;;;;;;29.79;43.52;94972.50;5085215;28;20834;-78
2022/06/04 04:35:52;;;;;;;17.73;16.23;;;;;;;30.44;42.66;94979.19;5084144;28;20439;-77
2022/06/04 04:38:18;;;;;;;17.63;15.37;;;;;;;29.86;43.49;94988.25;5086526;28;20233;-77
2022/06/04 04:40:45;;;;;;;19.93;17.87;;;;;;;30.16;42.56;94979.38;5084564;28;20434;-77
2022/06/04 04:43:11;;;;;;;16.67;15.30;;;;;;;29.88;42.84;94994.13;5086082;28;20419;-77
2022/06/04 04:45:36;;;;;;;17.50;15.90;;;;;;;29.73;43.17;94988.03;5085982;28;20421;-77
2022/06/04 04:48:02;;;;;;;17.03;15.57;;;;;;;30.04;42.89;94998.03;5085176;28;20178;-77
2022/06/04 04:50:32;;;;;;;20.80;16.20;;;;;;;29.34;44.10;95008.31;5081162;28;20236;-78
2022/06/04 04:52:58;;;;;;;18.83;17.13;;;;;;;28.85;45.59;95004.50;5084602;28;20258;-77
2022/06/04 04:55:24;;;;;;;17.10;15.80;;;;;;;29.80;43.66;95006.47;5080232;28;20423;-77
2022/06/04 04:57:50;;;;;;;19.07;17.30;;;;;;;29.69;43.24;95002.41;5083901;28;20799;-77
2022/06/04 05:00:17;;;;;;;18.43;16.73;;;;;;;29.63;43.92;95009.03;5081330;28;20427;-77
2022/06/04 05:02:43;;;;;;;19.37;17.37;;;;;;;29.17;44.83;95010.88;5086380;28;20204;-78
2022/06/04 05:05:11;;;;;;;19.00;17.10;;;;;;;30.39;42.42;95003.63;5084758;28;20857;-77
2022/06/04 05:07:38;;;;;;;19.70;18.10;;;;;;;30.10;43.14;95007.59;5080625;28;20421;-78
2022/06/04 05:10:04;;;;;;;16.57;15.00;;;;;;;30.87;41.80;95010.16;5082481;28;20553;-77
2022/06/04 05:12:30;;;;;;;17.63;16.13;;;;;;;31.03;41.33;95005.91;5085838;28;20424;-77
2022/06/04 05:14:56;;;;;;;18.63;16.83;;;;;;;31.11;41.01;95007.03;5084438;28;20926;-77
2022/06/04 05:17:21;;;;;;;17.70;16.07;;;;;;;30.81;40.90;95008.69;5076556;28;20263;-77
2022/06/04 05:19:47;;;;;;;16.43;15.03;;;;;;;31.66;39.77;95008.34;5082093;28;20201;-77
2022/06/04 05:22:12;;;;;;;17.83;15.97;;;;;;;31.69;40.02;95013.94;5085082;28;20185;-77
2022/06/04 05:24:38;;;;;;;19.23;17.50;;;;;;;31.51;40.10;95015.03;5085756;28;20174;-77
2022/06/04 05:27:05;;;;;;;18.70;17.00;;;;;;;31.62;40.57;95010.91;5080972;28;20185;-78
2022/06/04 05:29:31;;;;;;;20.57;18.83;;;;;;;31.75;39.89;95009.16;5083332;28;20261;-77
2022/06/04 05:31:57;;;;;;;19.00;17.40;;;;;;;30.28;42.48;95015.78;5084714;28;20790;-77
2022/06/04 05:34:24;;;;;;;21.50;19.40;;;;;;;31.08;41.16;95007.69;5084317;28;20476;-77
2022/06/04 05:36:53;;;;;;;18.70;17.00;;;;;;;31.62;39.71;95010.91;5080501;28;20458;-77
2022/06/04 05:39:19;;;;;;;18.90;17.20;;;;;;;32.17;39.09;95006.69;5099996;28;20412;-77
2022/06/04 05:41:44;;;;;;;19.07;17.53;;;;;;;32.01;39.16;95006.41;5076492;28;20505;-77
2022/06/04 05:44:10;;;;;;;19.83;18.03;;;;;;;32.14;39.33;95011.97;5084618;28;20416;-78
2022/06/04 05:46:38;;;;;;;22.07;19.90;;;;;;;32.68;38.15;95018.47;5087085;28;20181;-76
2022/06/04 05:49:03;;;;;;;27.10;18.03;;;;;;;31.77;39.19;95016.94;5088971;28;20407;-78
2022/06/04 05:51:30;;;;;;;35.83;20.93;;;;;;;31.97;39.06;95023.59;5103752;28;20438;-77
2022/06/04 05:53:57;;;;;;;21.63;19.50;;;;;;;32.17;39.25;95022.16;5087044;28;20189;-77
2022/06/04 05:56:25;;;;;;;20.27;18.20;;;;;;;31.31;40.38;95028.06;5086173;28;20474;-77
2022/06/04 05:58:56;;;;;;;21.20;19.30;;;;;;;31.08;40.97;95026.63;5103875;28;20419;-77
2022/06/04 06:01:23;;;;;;;24.80;21.50;;;;;;;30.77;41.78;95027.44;5083716;28;20474;-77
2022/06/04 06:03:48;;;;;;;44.00;22.87;;;;;;;30.85;42.00;95023.19;5089262;28;20420;-77
2022/06/04 06:06:22;;;;;;;22.27;18.13;;;;;;;31.68;40.78;95022.38;5087193;28;20447;-77
2022/06/04 06:08:48;;;;;;;41.67;22.10;;;;;;;31.22;41.50;95021.84;5073656;28;20174;-76
2022/06/04 06:11:16;;;;;;;28.97;21.63;;;;;;;31.59;40.15;95025.09;5100207;28;20542;-76
2022/06/04 06:14:00;;;;;;;21.70;19.40;;;;;;;30.67;42.16;95020.41;5088354;28;20181;-76
2022/06/04 06:16:29;;;;;;;26.27;19.60;;;;;;;31.63;40.50;95019.84;5082363;28;20471;-77
2022/06/04 06:18:54;;;;;;;56.73;22.43;;;;;;;31.46;40.23;95007.06;5088971;28;20412;-76
2022/06/04 06:21:25;;;;;;;21.57;19.60;;;;;;;31.23;40.63;95014.53;5087720;28;20775;-77
2022/06/04 06:23:51;;;;;;;20.70;18.57;;;;;;;31.54;40.53;95016.34;5088159;28;20179;-76
2022/06/04 06:26:19;;;;;;;21.63;19.53;;;;;;;32.09;38.95;95002.91;5088083;28;20419;-76
2022/06/04 06:28:46;;;;;;;24.80;19.10;;;;;;;31.96;38.77;94998.44;5086350;28;20174;-77
2022/06/04 06:31:14;;;;;;;19.93;18.03;;;;;;;32.36;38.78;94995.47;5088138;28;20408;-77
2022/06/04 06:33:40;;;;;;;20.93;18.77;;;;;;;32.90;37.28;94994.94;5086522;28;20470;-76
2022/06/04 06:36:09;;;;;;;19.37;17.47;;;;;;;32.57;38.03;95001.00;5086159;28;20448;-76
2022/06/04 06:38:35;;;;;;;20.33;17.80;;;;;;;32.48;38.14;94994.81;5088989;28;20193;-76
2022/06/04 06:41:01;;;;;;;18.63;17.20;;;;;;;32.48;38.62;94997.53;5088705;28;20410;-76
2022/06/04 06:43:36;;;;;;;18.77;17.13;;;;;;;33.31;37.02;94996.09;5088268;28;20421;-76
2022/06/04 06:46:13;;;;;;;15.83;14.40;;;;;;;33.14;36.64;94986.19;5085477;28;20403;-77
2022/06/04 06:48:41;;;;;;;18.37;16.70;;;;;;;32.92;37.07;94987.25;5083784;28;20420;-76
2022/06/04 06:51:14;;;;;;;19.77;17.70;;;;;;;33.64;36.21;94974.47;5088121;28;20435;-76
2022/06/04 06:53:40;;;;;;;18.63;16.87;;;;;;;34.17;35.35;94976.69;5086275;28;20424;-76
2022/06/04 06:56:18;;;;;;;16.87;15.33;;;;;;;34.10;34.84;94977.19;5085761;28;20523;-76
2022/06/04 06:58:43;;;;;;;19.17;15.27;;;;;;;33.34;36.28;94970.25;5080129;28;20698;-76
2022/06/04 07:01:09;;;;;;;17.30;15.63;;;;;;;33.47;35.70;94963.75;5087628;28;20408;-76
2022/06/04 07:03:36;;;;;;;15.70;14.20;;;;;;;33.87;35.52;94965.94;5086349;28;20193;-76
2022/06/04 07:06:03;;;;;;;15.80;14.57;;;;;;;34.37;34.75;94964.13;5087177;28;20421;-76
2022/06/04 07:08:29;;;;;;;15.77;13.97;;;;;;;33.31;36.16;94962.75;5087337;28;20422;-76
2022/06/04 07:10:54;;;;;;;12.83;11.70;;;;;;;33.35;35.92;94963.69;5087424;28;20616;-77
2022/06/04 07:13:20;;;;;;;14.20;12.53;;;;;;;33.18;36.46;94960.00;5086083;28;20179;-76
2022/06/04 07:15:46;;;;;;;15.67;13.90;;;;;;;32.97;36.86;94959.97;5085273;28;20178;-76
2022/06/04 07:18:12;;;;;;;14.73;13.50;;;;;;;33.54;36.14;94958.56;5086245;28;20941;-76
2022/06/04 07:20:38;;;;;;;16.43;14.80;;;;;;;33.76;36.00;94959.34;5082292;28;20180;-76
2022/06/04 07:23:04;;;;;;;12.83;11.63;;;;;;;34.76;34.10;94951.81;5084794;28;20429;-76
2022/06/04 07:25:30;;;;;;;13.73;12.33;;;;;;;35.56;32.50;94942.09;5086837;28;20418;-76
2022/06/04 07:27:56;;;;;;;13.73;12.10;;;;;;;35.61;32.42;94948.41;5087503;28;20184;-76
2022/06/04 07:30:21;;;;;;;12.53;11.23;;;;;;;35.66;32.53;94943.50;5088250;28;20210;-75
2022/06/04 07:32:47;;;;;;;11.37;10.43;;;;;;;34.82;33.07;94943.41;5087442;28;20177;-76
2022/06/04 07:35:12;;;;;;;13.00;11.93;;;;;;;33.45;35.95;94936.16;5086841;28;20180;-76
2022/06/04 07:37:38;;;;;;;12.07;10.97;;;;;;;34.80;33.82;94936.38;5085933;28;20204;-76
2022/06/04 07:40:04;;;;;;;12.80;11.50;;;;;;;35.90;32.55;94933.66;5084704;28;20181;-76
2022/06/04 07:42:29;;;;;;;12.70;11.40;;;;;;;35.48;32.95;94934.88;5077476;28;20173;-76
2022/06/04 07:44:56;;;;;;;11.73;10.53;;;;;;;35.70;32.34;94930.00;5083799;28;20431;-77
2022/06/04 07:47:21;;;;;;;12.20;10.97;;;;;;;36.69;30.32;94924.69;5080638;28;20175;-76
2022/06/04 07:49:47;;;;;;;14.23;9.83;;;;;;;36.45;30.03;94923.75;5086938;28;20427;-76
2022/06/04 07:52:12;;;;;;;9.90;9.03;;;;;;;36.15;30.55;94921.44;5079167;28;20202;-77
2022/06/04 07:54:39;;;;;;;11.70;9.87;;;;;;;35.70;31.09;94927.28;5083543;28;20174;-76
2022/06/04 07:57:05;;;;;;;11.00;9.90;;;;;;;36.74;30.06;94927.94;5082410;28;20221;-77
2022/06/04 07:59:30;;;;;;;11.10;9.37;;;;;;;37.01;29.38;94919.16;5086615;28;20422;-77
2022/06/04 08:01:55;;;;;;;12.37;9.70;;;;;;;36.99;29.50;94927.69;5086540;28;20470;-77
2022/06/04 08:04:21;;;;;;;12.53;9.83;;;;;;;37.44;28.60;94920.84;5086485;28;20193;-77
2022/06/04 08:06:46;;;;;;;10.43;9.47;;;;;;;37.59;28.16;94921.16;5085811;28;20174;-76
2022/06/04 08:09:12;;;;;;;10.40;9.53;;;;;;;37.01;29.77;94909.03;5086078;28;20178;-77
2022/06/04 08:11:38;;;;;;;10.90;8.57;;;;;;;36.09;30.21;94908.44;5084993;28;20170;-77
2022/06/04 08:14:17;;;;;;;7.80;7.20;;;;;;;36.86;28.67;94912.59;5084859;28;20420;-77
2022/06/04 08:16:46;;;;;;;7.50;6.80;;;;;;;35.85;30.40;94903.94;5084622;28;20213;-77
2022/06/04 08:19:12;;;;;;;11.17;7.63;;;;;;;36.68;28.92;94907.56;5085717;28;20423;-78
2022/06/04 08:21:39;;;;;;;10.13;7.53;;;;;;;36.15;29.75;94909.75;5085475;28;20454;-77
2022/06/04 08:24:05;;;;;;;7.30;6.63;;;;;;;36.50;29.17;94906.31;5084768;28;20412;-76
2022/06/04 08:26:31;;;;;;;7.83;7.13;;;;;;;36.76;29.00;94900.31;5085576;28;20412;-77
2022/06/04 08:28:57;;;;;;;9.50;7.07;;;;;;;36.74;28.50;94900.66;5084446;28;20603;-76
2022/06/04 08:31:22;;;;;;;9.20;8.20;;;;;;;36.56;28.88;94888.56;5084676;28;20201;-77
2022/06/04 08:33:48;;;;;;;8.40;7.60;;;;;;;36.18;29.86;94879.13;5085840;28;20456;-77
2022/06/04 08:36:15;;;;;;;9.77;6.90;;;;;;;37.24;28.47;94884.59;5084438;28;20265;-77
2022/06/04 08:38:41;;;;;;;9.03;8.20;;;;;;;36.93;28.19;94882.75;5085757;28;20174;-77
2022/06/04 08:41:17;;;;;;;7.13;6.50;;;;;;;36.59;28.79;94885.09;5084212;28;20430;-77
2022/06/04 08:43:51;;;;;;;10.60;6.50;;;;;;;37.12;27.70;94877.28;5084612;28;20166;-77
2022/06/04 08:46:28;;;;;;;6.80;6.20;;;;;;;36.99;27.71;94878.56;5085446;28;20424;-77
2022/06/04 08:48:56;;;;;;;10.03;7.23;;;;;;;36.23;28.68;94869.88;5071722;28;20408;-77
2022/06/04 08:51:28;;;;;;;9.83;6.90;;;;;;;36.25;28.79;94871.09;5068262;28;20440;-76
2022/06/04 08:53:55;;;;;;;6.87;6.27;;;;;;;37.21;27.82;94863.47;5080726;28;20416;-76
2022/06/04 08:59:35;;;;;;;6.77;6.17;;;;;;;36.85;27.79;94872.84;5073284;28;20461;-76
2022/06/04 09:02:04;;;;;;;7.90;7.10;;;;;;;36.73;28.26;94874.53;5085695;28;20408;-77
2022/06/04 09:04:42;;;;;;;7.77;7.07;;;;;;;37.06;27.72;94878.72;5085538;28;20725;-77
2022/06/04 09:07:40;;;;;;;8.10;7.30;;;;;;;37.20;27.27;94874.72;5083562;28;20430;-76
2022/06/04 09:10:19;;;;;;;9.17;6.93;;;;;;;37.94;26.48;94880.00;5083657;28;20436;-76
2022/06/04 09:12:58;;;;;;;6.87;6.03;;;;;;;37.78;26.42;94874.69;5083632;28;20483;-76
2022/06/04 09:15:34;;;;;;;7.00;6.30;;;;;;;38.23;25.89;94883.28;5085458;28;20420;-76
2022/06/04 09:18:11;;;;;;;6.93;6.33;;;;;;;37.83;26.42;94879.84;5085552;28;20470;-77
2022/06/04 09:20:40;;;;;;;7.50;6.07;;;;;;;37.86;26.19;94873.63;5083667;28;20408;-77
2022/06/04 09:23:11;;;;;;;7.93;7.30;;;;;;;37.90;25.93;94871.75;5085414;28;20428;-76
2022/06/04 09:25:47;;;;;;;7.47;6.00;;;;;;;37.45;26.85;94884.22;5083659;28;20495;-76
2022/06/04 09:28:19;;;;;;;8.60;5.97;;;;;;;37.83;25.89;94882.59;5085441;28;20430;-76
2022/06/04 09:30:55;;;;;;;9.33;6.17;;;;;;;38.34;25.14;94880.69;5100576;28;20412;-76
2022/06/04 09:33:29;;;;;;;11.63;5.70;;;;;;;39.14;24.42;94886.94;5083568;28;20468;-77
2022/06/04 09:35:55;;;;;;;6.50;5.97;;;;;;;37.30;27.06;94883.16;5084786;28;20408;-78
2022/06/04 09:38:27;;;;;;;7.53;5.97;;;;;;;37.84;25.95;94883.38;5083880;28;20443;-76
2022/06/04 09:41:18;;;;;;;6.70;6.10;;;;;;;38.52;25.11;94884.47;5085135;28;20197;-77
2022/06/04 09:43:45;;;;;;;7.90;5.80;;;;;;;37.97;26.08;94881.25;5084745;28;20420;-77
2022/06/04 09:46:13;;;;;;;6.00;5.37;;;;;;;37.96;26.18;94883.16;5085900;28;20438;-76
2022/06/04 09:48:49;;;;;;;8.20;6.50;;;;;;;38.10;26.07;94888.13;5086161;28;20480;-76
2022/06/04 09:51:27;;;;;;;6.77;5.50;;;;;;;38.27;25.37;94890.38;5075447;28;20432;-76
2022/06/04 09:54:03;;;;;;;7.20;6.57;;;;;;;37.92;25.90;94882.31;5086120;28;20419;-76
2022/06/04 09:56:39;;;;;;;7.73;6.70;;;;;;;37.73;26.03;94883.16;5075869;28;20455;-77
2022/06/04 09:59:21;;;;;;;6.63;6.13;;;;;;;38.32;25.56;94880.25;5083776;28;20399;-76
2022/06/04 10:02:00;;;;;;;6.83;6.23;;;;;;;39.52;24.51;94878.75;5084902;28;20441;-77
2022/06/04 10:05:02;;;;;;;8.50;6.40;;;;;;;38.53;25.00;94871.59;5087688;28;20432;-77
2022/06/04 10:07:45;;;;;;;6.27;5.70;;;;;;;36.22;27.32;94865.53;5083261;28;20415;-77
2022/06/04 10:10:26;;;;;;;13.37;7.50;;;;;;;37.31;26.57;94867.53;5081841;28;20411;-76
2022/06/04 10:15:41;;;;;;;7.40;6.83;;;;;;;36.23;27.69;94865.19;5084803;28;20418;-76
2022/06/04 10:18:13;;;;;;;9.03;6.20;;;;;;;36.10;27.83;94855.50;5075822;28;20462;-76
2022/06/04 10:20:39;;;;;;;7.73;5.80;;;;;;;37.41;26.57;94857.97;5084045;28;20411;-76
2022/06/04 10:23:13;;;;;;;8.73;7.03;;;;;;;38.33;25.46;94859.97;5084700;28;20428;-77
2022/06/04 10:26:05;;;;;;;17.80;8.40;;;;;;;38.22;25.32;94860.59;5088236;28;20662;-76
2022/06/04 10:28:30;;;;;;;22.37;9.00;;;;;;;37.78;25.86;94852.03;5083572;28;20435;-76
2022/06/04 10:31:12;;;;;;;7.60;6.93;;;;;;;38.00;26.18;94853.16;5085715;28;20412;-76
2022/06/04 10:34:05;;;;;;;7.60;7.00;;;;;;;37.87;25.82;94850.63;5086836;28;20222;-76
2022/06/04 10:36:50;;;;;;;9.90;7.03;;;;;;;38.04;25.45;94843.88;5086327;28;20459;-76
2022/06/04 10:40:02;;;;;;;8.70;6.70;;;;;;;38.28;25.32;94842.69;5087218;28;20479;-76
2022/06/04 10:42:52;;;;;;;7.80;7.10;;;;;;;38.28;25.57;94837.22;5064383;28;20449;-76
2022/06/04 10:45:29;;;;;;;7.43;6.63;;;;;;;38.31;25.57;94837.69;5095514;28;20423;-76
2022/06/04 10:48:03;;;;;;;9.13;8.10;;;;;;;39.34;24.22;94837.47;5075700;28;20416;-76
2022/06/04 10:50:28;;;;;;;7.47;6.77;;;;;;;40.05;23.88;94831.09;5079083;28;20416;-76
2022/06/04 10:53:07;;;;;;;8.87;6.30;;;;;;;40.89;22.64;94826.59;5087853;28;20486;-77
2022/06/04 10:55:45;;;;;;;7.10;6.53;;;;;;;40.98;22.86;94829.75;5083673;28;20548;-76
2022/06/04 10:58:32;;;;;;;8.20;7.40;;;;;;;39.87;23.97;94820.75;5087743;28;20593;-77
2022/06/04 11:01:23;;;;;;;8.90;7.00;;;;;;;40.77;23.13;94816.72;5086114;28;20408;-76
2022/06/04 11:04:27;;;;;;;8.20;7.50;;;;;;;39.56;24.42;94809.16;5066055;28;20429;-76
2022/06/04 11:06:59;;;;;;;9.70;7.27;;;;;;;38.81;25.23;94805.53;5072709;28;20427;-76
2022/06/04 11:09:38;;;;;;;11.00;7.60;;;;;;;37.42;27.22;94808.47;5083458;28;20412;-76
2022/06/04 11:12:40;;;;;;;7.80;7.10;;;;;;;37.98;26.38;94796.16;5075776;28;20420;-76
2022/06/04 11:15:19;;;;;;;7.83;7.30;;;;;;;37.79;26.42;94799.75;5087450;28;20503;-76
2022/06/04 11:18:01;;;;;;;8.40;7.60;;;;;;;37.31;27.40;94796.56;5087592;28;20542;-77
2022/06/04 11:20:35;;;;;;;11.50;8.20;;;;;;;37.54;27.27;94795.78;5067200;28;20398;-76
2022/06/04 11:23:19;;;;;;;9.73;8.77;;;;;;;38.15;26.70;94796.81;5069255;28;20445;-76
2022/06/04 11:25:49;;;;;;;8.60;7.90;;;;;;;39.51;25.28;94800.47;5074703;28;20427;-76
2022/06/04 11:28:23;;;;;;;9.17;8.20;;;;;;;40.16;23.98;94796.31;5087385;28;20431;-76
2022/06/04 11:31:07;;;;;;;9.30;8.50;;;;;;;40.96;22.95;94799.16;5085204;28;20426;-76
2022/06/04 11:33:44;;;;;;;9.67;8.97;;;;;;;39.82;24.72;94794.50;5087432;28;20452;-76
2022/06/04 11:36:51;;;;;;;8.50;7.80;;;;;;;41.62;22.78;94789.91;5072979;28;20404;-76
2022/06/04 11:39:41;;;;;;;12.57;9.50;;;;;;;39.98;24.31;94791.50;5045230;28;20421;-76
2022/06/04 11:42:09;;;;;;;9.73;8.93;;;;;;;40.43;24.09;94798.88;5085653;28;20455;-76
2022/06/04 11:44:49;;;;;;;12.27;8.87;;;;;;;40.52;24.37;94791.84;5086802;28;20434;-76
2022/06/04 11:47:49;;;;;;;9.33;8.60;;;;;;;40.21;24.44;94785.78;5086582;28;20430;-76
2022/06/04 11:50:21;;;;;;;9.10;8.40;;;;;;;40.01;24.89;94784.47;5075390;28;20433;-77
2022/06/04 11:53:14;;;;;;;10.10;9.30;;;;;;;40.40;24.10;94782.00;5072867;28;20454;-76
2022/06/04 11:56:11;;;;;;;9.63;8.90;;;;;;;39.27;26.00;94788.84;5083381;28;20423;-76